BBC398 VIDP-VGHS
Flight info
| Callsign | BBC398 |
|---|---|
| Flight time | N/A |
| Altitude | 37000 |
| Route | LKN7G LKN W45 BODOG A201 RAJ G463 IDLOX |
| Aircraft | B77W/H-SDE1E2E3FGHIJ2J3J4J5M1RWXY/LB1D1 |
Departure
| Time | 2026-05-05 12:44 |
|---|---|
| Airport | Indira Gandhi International Airport (VIDP) |
Arrival
| Time | N/A |
|---|---|
| Airport | Hazrat Shahjalal International Airport (VGHS) |
| Time | Latitude | Longitude | Altitude | Speed | Heading |
|---|---|---|---|---|---|
| 2026-05-05 12:09 | 28.55140 | 77.08378 | 748 ft | 0 kts | 331° |
| 2026-05-05 12:34 | 28.55120 | 77.08391 | 748 ft | 4 kts | 329° |
| 2026-05-05 12:34 | 28.55106 | 77.08402 | 748 ft | 2 kts | 308° |
| 2026-05-05 12:34 | 28.55102 | 77.08413 | 748 ft | 2 kts | 247° |
| 2026-05-05 12:34 | 28.55109 | 77.08431 | 748 ft | 0 kts | 239° |
| 2026-05-05 12:35 | 28.55100 | 77.08411 | 748 ft | 2 kts | 240° |
| 2026-05-05 12:35 | 28.55094 | 77.08400 | 748 ft | 1 kts | 240° |
| 2026-05-05 12:35 | 28.55094 | 77.08399 | 748 ft | 0 kts | 240° |
| 2026-05-05 12:38 | 28.55093 | 77.08398 | 753 ft | 0 kts | 240° |
| 2026-05-05 12:38 | 28.55092 | 77.08395 | 753 ft | 1 kts | 240° |
| 2026-05-05 12:38 | 28.55087 | 77.08384 | 748 ft | 2 kts | 240° |
| 2026-05-05 12:38 | 28.55077 | 77.08365 | 748 ft | 4 kts | 240° |
| 2026-05-05 12:39 | 28.55053 | 77.08339 | 749 ft | 5 kts | 210° |
| 2026-05-05 12:39 | 28.55016 | 77.08327 | 750 ft | 6 kts | 195° |
| 2026-05-05 12:39 | 28.54972 | 77.08311 | 750 ft | 7 kts | 202° |
| 2026-05-05 12:39 | 28.54937 | 77.08268 | 749 ft | 8 kts | 246° |
| 2026-05-05 12:40 | 28.54938 | 77.08199 | 749 ft | 10 kts | 281° |
| 2026-05-05 12:40 | 28.54954 | 77.08117 | 749 ft | 11 kts | 284° |
| 2026-05-05 12:40 | 28.54976 | 77.08022 | 748 ft | 13 kts | 285° |
| 2026-05-05 12:40 | 28.55001 | 77.07915 | 748 ft | 15 kts | 285° |
| 2026-05-05 12:41 | 28.55030 | 77.07798 | 744 ft | 16 kts | 285° |
| 2026-05-05 12:41 | 28.55059 | 77.07675 | 743 ft | 10 kts | 284° |
| 2026-05-05 12:41 | 28.55048 | 77.07614 | 741 ft | 8 kts | 234° |
| 2026-05-05 12:41 | 28.55011 | 77.07590 | 742 ft | 3 kts | 194° |
| 2026-05-05 12:42 | 28.54987 | 77.07583 | 742 ft | 4 kts | 194° |
| 2026-05-05 12:42 | 28.54949 | 77.07571 | 742 ft | 8 kts | 195° |
| 2026-05-05 12:42 | 28.54895 | 77.07557 | 745 ft | 6 kts | 187° |
| 2026-05-05 12:42 | 28.54854 | 77.07582 | 743 ft | 8 kts | 128° |
| 2026-05-05 12:43 | 28.54839 | 77.07638 | 743 ft | 7 kts | 102° |
| 2026-05-05 12:43 | 28.54819 | 77.07732 | 747 ft | 34 kts | 104° |
| 2026-05-05 12:43 | 28.54693 | 77.08322 | 751 ft | 117 kts | 104° |
| 2026-05-05 12:43 | 28.54450 | 77.09465 | 781 ft | 179 kts | 103° |
| 2026-05-05 12:44 | 28.54141 | 77.10864 | 1441 ft | 179 kts | 104° |
| 2026-05-05 12:44 | 28.53777 | 77.12211 | 2207 ft | 180 kts | 118° |
| 2026-05-05 12:44 | 28.52811 | 77.13128 | 2647 ft | 194 kts | 165° |
| 2026-05-05 12:44 | 28.51386 | 77.13299 | 2894 ft | 218 kts | 172° |
| 2026-05-05 12:45 | 28.49961 | 77.14057 | 3104 ft | 244 kts | 134° |
| 2026-05-05 12:45 | 28.49080 | 77.15721 | 3622 ft | 254 kts | 114° |
| 2026-05-05 12:45 | 28.48342 | 77.17602 | 4321 ft | 265 kts | 114° |
| 2026-05-05 12:45 | 28.47554 | 77.19553 | 5021 ft | 277 kts | 115° |
| 2026-05-05 12:46 | 28.46723 | 77.21563 | 5821 ft | 284 kts | 115° |